Time;durP1;ratioP1;P1;durP2;ratioP2;P2;SDS_P1;SDS_P2;PMS_P1;PMS_P2;Temp;Humidity;BMP_temperature;BMP_pressure;BME280_temperature;BME280_humidity;BME280_pressure;Samples;Min_cycle;Max_cycle;Signal;HPM_P1;HPM_P2
2022/08/06 00:00:59;;;;;;;4.03;1.00;;;15.00;99.90;;;;;;4993686;28;20515;-86
2022/08/06 00:03:25;;;;;;;2.60;0.80;;;14.90;99.90;;;;;;4978614;28;20413;-86
2022/08/06 00:05:52;;;;;;;2.20;0.90;;;15.00;99.90;;;;;;4979949;28;20423;-86
2022/08/06 00:08:18;;;;;;;2.28;0.98;;;14.90;99.90;;;;;;4973984;28;20385;-88
2022/08/06 00:10:44;;;;;;;3.15;1.00;;;14.90;99.90;;;;;;4975170;28;20794;-87
2022/08/06 00:13:11;;;;;;;1.80;0.90;;;14.80;99.90;;;;;;4969790;28;20390;-88
2022/08/06 00:15:36;;;;;;;3.03;1.00;;;14.70;99.90;;;;;;4987903;28;20459;-88
2022/08/06 00:18:02;;;;;;;1.40;0.90;;;14.70;99.90;;;;;;4971632;28;20388;-88
2022/08/06 00:20:28;;;;;;;1.88;0.90;;;14.70;99.90;;;;;;4977536;28;20451;-91
2022/08/06 00:22:54;;;;;;;1.20;0.90;;;14.70;99.90;;;;;;4977607;28;20408;-92
2022/08/06 00:25:20;;;;;;;1.42;0.90;;;14.70;99.90;;;;;;4977237;28;20388;-88
2022/08/06 00:27:46;;;;;;;1.27;0.95;;;14.70;99.90;;;;;;4975806;28;20412;-90
2022/08/06 00:30:12;;;;;;;1.75;0.90;;;14.60;99.90;;;;;;4976729;28;20902;-89
2022/08/06 00:32:37;;;;;;;1.67;0.85;;;14.60;99.90;;;;;;4990101;28;20405;-88
2022/08/06 00:35:04;;;;;;;3.73;1.00;;;14.50;99.90;;;;;;4977559;28;20404;-89
2022/08/06 00:37:32;;;;;;;2.10;0.90;;;14.50;99.90;;;;;;4991205;28;20415;-89
2022/08/06 00:40:01;;;;;;;1.90;1.10;;;14.40;99.90;;;;;;4977226;28;21459;-90
2022/08/06 00:42:27;;;;;;;2.35;0.90;;;14.40;99.90;;;;;;4972085;28;20613;-90
2022/08/06 00:44:54;;;;;;;3.20;0.95;;;14.30;99.90;;;;;;4972753;28;20466;-89
2022/08/06 00:47:20;;;;;;;1.38;0.80;;;14.50;99.90;;;;;;4976038;28;20413;-88
2022/08/06 00:49:45;;;;;;;3.42;1.15;;;14.30;99.90;;;;;;4987012;28;20391;-88
2022/08/06 00:52:11;;;;;;;3.17;1.10;;;14.30;99.90;;;;;;4976807;28;20399;-86
2022/08/06 00:54:37;;;;;;;2.60;1.00;;;14.30;99.90;;;;;;4973546;28;20407;-90
2022/08/06 00:57:06;;;;;;;1.45;1.10;;;14.20;99.90;;;;;;4993936;28;20436;-88
2022/08/06 00:59:31;;;;;;;2.20;1.10;;;14.10;99.90;;;;;;4974858;28;20413;-88
2022/08/06 01:01:57;;;;;;;1.40;0.90;;;14.10;99.90;;;;;;4975728;28;20897;-90
2022/08/06 01:04:23;;;;;;;3.13;1.17;;;14.10;99.90;;;;;;4975309;28;20389;-92
2022/08/06 01:06:48;;;;;;;1.83;1.08;;;14.00;99.90;;;;;;4974582;28;20906;-90
2022/08/06 01:09:14;;;;;;;1.60;0.90;;;14.00;99.90;;;;;;4975037;28;20381;-88
2022/08/06 01:11:40;;;;;;;2.17;0.98;;;14.00;99.90;;;;;;4970371;28;20385;-87
2022/08/06 01:14:07;;;;;;;2.42;1.20;;;13.90;99.90;;;;;;4976464;28;20385;-91
2022/08/06 01:16:39;;;;;;;2.15;1.20;;;13.80;99.90;;;;;;4993226;28;20388;-87
2022/08/06 01:19:30;;;;;;;0.93;0.85;;;13.80;99.90;;;;;;4975258;28;20419;-91
2022/08/06 01:22:13;;;;;;;2.23;1.07;;;13.80;99.90;;;;;;4994309;28;20385;-89
2022/08/06 01:24:51;;;;;;;2.30;1.10;;;13.80;99.90;;;;;;4975058;28;20416;-89
2022/08/06 01:27:36;;;;;;;1.55;1.00;;;13.70;99.90;;;;;;4975323;28;20389;-87
2022/08/06 01:30:11;;;;;;;2.78;1.17;;;13.60;99.90;;;;;;4984831;28;20383;-85
2022/08/06 01:32:43;;;;;;;3.00;1.10;;;13.50;99.90;;;;;;4982649;28;20892;-87
2022/08/06 01:35:16;;;;;;;1.90;1.10;;;13.50;99.90;;;;;;4967948;28;20387;-89
2022/08/06 01:38:07;;;;;;;1.90;1.10;;;13.50;99.90;;;;;;4968818;28;20385;-89
2022/08/06 01:40:36;;;;;;;1.75;1.05;;;13.40;99.90;;;;;;4974625;28;21220;-87
2022/08/06 01:43:05;;;;;;;2.83;1.00;;;13.30;99.90;;;;;;4976224;28;20464;-90
2022/08/06 01:45:33;;;;;;;2.00;1.10;;;13.30;99.90;;;;;;4975181;28;20416;-89
2022/08/06 01:48:03;;;;;;;3.80;1.35;;;13.30;99.90;;;;;;4968649;28;20392;-90
2022/08/06 01:50:50;;;;;;;1.55;1.20;;;13.20;99.90;;;;;;4991174;28;20922;-89
2022/08/06 01:53:21;;;;;;;1.70;1.23;;;13.20;99.90;;;;;;4960370;28;20402;-87
2022/08/06 01:55:52;;;;;;;3.40;1.10;;;13.20;99.90;;;;;;4984679;28;20393;-91
2022/08/06 01:58:24;;;;;;;1.40;1.20;;;13.10;99.90;;;;;;4968067;28;20408;-91
2022/08/06 02:00:52;;;;;;;2.25;1.27;;;13.10;99.90;;;;;;4985982;28;20479;-92
2022/08/06 02:03:28;;;;;;;1.58;1.10;;;13.00;99.90;;;;;;4974709;28;20425;-90
2022/08/06 02:05:56;;;;;;;2.15;1.20;;;13.00;99.90;;;;;;4975701;28;20520;-91
2022/08/06 02:08:27;;;;;;;2.08;1.30;;;13.00;99.90;;;;;;4975251;28;20506;-90
2022/08/06 02:10:55;;;;;;;2.50;1.20;;;13.00;99.90;;;;;;4978509;28;20523;-92
2022/08/06 02:13:22;;;;;;;2.50;1.20;;;13.00;99.90;;;;;;4975037;28;20389;-88
2022/08/06 02:15:49;;;;;;;2.10;1.17;;;12.90;99.90;;;;;;4972935;28;20417;-89
2022/08/06 02:18:18;;;;;;;2.50;1.30;;;12.80;99.90;;;;;;4977256;28;20416;-90
2022/08/06 02:20:49;;;;;;;2.10;1.20;;;12.80;99.90;;;;;;4979793;28;20436;-92
2022/08/06 02:23:21;;;;;;;2.53;1.40;;;12.70;99.90;;;;;;4974475;28;20437;-87
2022/08/06 02:25:49;;;;;;;1.88;1.15;;;12.70;99.90;;;;;;4977974;28;20408;-90
2022/08/06 02:28:18;;;;;;;2.25;1.33;;;12.60;99.90;;;;;;4974537;28;20398;-88
2022/08/06 02:30:47;;;;;;;3.45;1.30;;;12.60;99.90;;;;;;4972905;28;20416;-93
2022/08/06 02:33:13;;;;;;;4.30;1.70;;;12.60;99.90;;;;;;4978866;28;20385;-90
2022/08/06 02:35:45;;;;;;;2.85;1.20;;;12.60;99.90;;;;;;4976156;28;20758;-90
2022/08/06 02:38:31;;;;;;;1.83;1.20;;;12.60;99.90;;;;;;4976478;28;20419;-91
2022/08/06 02:41:06;;;;;;;1.52;1.10;;;12.60;99.90;;;;;;4982149;28;20477;-91
2022/08/06 02:43:36;;;;;;;2.08;1.30;;;12.60;99.90;;;;;;4978987;28;20388;-90
2022/08/06 02:46:16;;;;;;;2.55;1.30;;;12.50;99.90;;;;;;4981811;28;20391;-90
2022/08/06 02:48:59;;;;;;;2.42;1.40;;;12.50;99.90;;;;;;4966538;28;20480;-91
2022/08/06 02:51:33;;;;;;;2.40;1.27;;;12.40;99.90;;;;;;4976547;28;20460;-90
2022/08/06 02:54:16;;;;;;;2.65;1.40;;;12.40;99.90;;;;;;4982989;28;20397;-91
2022/08/06 02:56:45;;;;;;;2.17;1.52;;;12.40;99.90;;;;;;4981407;28;20385;-89
2022/08/06 02:59:13;;;;;;;3.42;1.55;;;12.30;99.90;;;;;;4980659;28;20856;-90
2022/08/06 03:01:45;;;;;;;3.03;1.50;;;12.30;99.90;;;;;;4976383;28;20397;-93
2022/08/06 03:04:12;;;;;;;2.00;1.45;;;12.30;99.90;;;;;;4975787;28;20403;-91
2022/08/06 03:06:42;;;;;;;2.28;1.50;;;12.30;99.90;;;;;;4976758;28;20389;-91
2022/08/06 03:09:09;;;;;;;2.10;1.58;;;12.20;99.90;;;;;;4977410;28;20392;-87
2022/08/06 03:11:37;;;;;;;2.10;1.50;;;12.20;99.90;;;;;;4975232;28;20408;-89
2022/08/06 03:14:05;;;;;;;2.22;1.50;;;12.20;99.90;;;;;;4973335;28;20390;-85
2022/08/06 03:16:35;;;;;;;2.97;1.70;;;12.10;99.90;;;;;;4978780;28;20383;-88
2022/08/06 03:19:01;;;;;;;1.63;1.40;;;12.10;99.90;;;;;;4980407;28;20404;-92
2022/08/06 03:21:30;;;;;;;3.30;1.70;;;12.10;99.90;;;;;;4981904;28;20393;-89
2022/08/06 03:23:57;;;;;;;3.00;1.45;;;12.10;99.90;;;;;;4979293;28;20408;-89
2022/08/06 03:26:26;;;;;;;2.80;1.70;;;12.10;99.90;;;;;;4991824;28;20392;-86
2022/08/06 03:28:59;;;;;;;3.65;1.67;;;12.10;99.90;;;;;;4979292;28;20388;-92
2022/08/06 03:31:26;;;;;;;2.38;1.50;;;12.00;99.90;;;;;;4981243;28;20798;-93
2022/08/06 03:33:53;;;;;;;3.13;2.10;;;12.10;99.90;;;;;;4977898;28;20407;-88
2022/08/06 03:36:20;;;;;;;2.63;1.70;;;12.10;99.90;;;;;;4995872;28;20393;-88
2022/08/06 03:39:02;;;;;;;2.95;2.10;;;12.00;99.90;;;;;;4980724;28;20405;-89
2022/08/06 03:41:32;;;;;;;2.63;2.08;;;12.00;99.90;;;;;;4977149;28;20535;-91
2022/08/06 03:43:59;;;;;;;2.33;2.13;;;12.00;99.90;;;;;;4972268;28;20400;-91
2022/08/06 03:46:28;;;;;;;3.42;2.30;;;12.00;99.90;;;;;;4973255;28;20428;-87
2022/08/06 03:48:56;;;;;;;4.97;2.25;;;12.00;99.90;;;;;;4995211;28;20386;-87
2022/08/06 03:51:26;;;;;;;3.17;2.17;;;12.10;99.90;;;;;;4987152;28;20404;-86
2022/08/06 03:53:53;;;;;;;3.63;2.20;;;12.10;99.90;;;;;;4997078;28;20392;-90
2022/08/06 03:56:22;;;;;;;2.33;1.93;;;12.10;99.90;;;;;;4973351;28;20382;-89
2022/08/06 03:58:50;;;;;;;2.60;2.03;;;12.10;99.90;;;;;;4975815;28;20967;-91
2022/08/06 04:01:21;;;;;;;4.30;2.08;;;12.10;99.90;;;;;;4996151;28;20489;-89
2022/08/06 04:03:48;;;;;;;3.05;1.83;;;12.10;99.90;;;;;;4971364;28;20392;-89
2022/08/06 04:06:15;;;;;;;3.60;2.27;;;12.00;99.90;;;;;;4977807;28;20401;-90
2022/08/06 04:08:42;;;;;;;3.97;2.10;;;12.00;99.90;;;;;;4991918;28;20384;-90
2022/08/06 04:11:08;;;;;;;3.13;2.10;;;12.00;99.90;;;;;;4975341;28;20463;-89
2022/08/06 04:13:36;;;;;;;2.83;1.90;;;12.10;99.90;;;;;;4977098;28;20394;-90
2022/08/06 04:16:02;;;;;;;4.33;2.10;;;12.00;99.90;;;;;;4973098;28;20393;-92
2022/08/06 04:18:32;;;;;;;2.40;2.20;;;12.00;99.90;;;;;;4977624;28;20491;-87
2022/08/06 04:21:02;;;;;;;3.47;2.08;;;12.10;99.90;;;;;;4993330;28;20895;-90
2022/08/06 04:23:27;;;;;;;2.30;2.17;;;12.10;99.90;;;;;;4978101;28;20372;-89
2022/08/06 04:26:01;;;;;;;3.00;2.00;;;12.10;99.90;;;;;;4976542;28;20961;-88
2022/08/06 04:28:28;;;;;;;3.10;2.03;;;12.10;99.90;;;;;;4976164;28;20380;-88
2022/08/06 04:30:56;;;;;;;3.38;2.00;;;12.10;99.90;;;;;;4973603;28;20440;-88
2022/08/06 04:33:24;;;;;;;2.90;2.08;;;12.10;99.90;;;;;;4975698;28;20431;-89
2022/08/06 04:35:50;;;;;;;3.50;2.00;;;12.10;99.90;;;;;;4977199;28;20448;-90
2022/08/06 04:38:17;;;;;;;2.33;1.98;;;12.10;99.90;;;;;;4977322;28;20443;-90
2022/08/06 04:40:43;;;;;;;2.30;2.10;;;12.10;99.90;;;;;;4976128;28;20408;-89
2022/08/06 04:43:11;;;;;;;3.37;2.20;;;12.10;99.90;;;;;;4970918;28;20385;-93
2022/08/06 04:45:38;;;;;;;5.25;2.03;;;12.10;99.90;;;;;;4975616;28;20432;-89
2022/08/06 04:48:08;;;;;;;2.58;2.30;;;12.20;99.90;;;;;;4974568;28;20492;-92
2022/08/06 04:50:34;;;;;;;4.88;2.20;;;12.20;99.90;;;;;;4975445;28;20397;-91
2022/08/06 04:53:11;;;;;;;3.37;2.20;;;12.30;99.90;;;;;;4961034;28;20389;-91
2022/08/06 04:55:38;;;;;;;2.60;1.90;;;12.20;99.90;;;;;;4992101;28;20402;-91
2022/08/06 04:58:06;;;;;;;2.78;2.03;;;12.10;99.90;;;;;;4981065;28;20387;-87
2022/08/06 05:00:35;;;;;;;3.13;2.20;;;12.20;99.90;;;;;;4972999;28;20425;-91
2022/08/06 05:03:01;;;;;;;3.00;1.90;;;12.20;99.90;;;;;;4993133;28;20397;-91
2022/08/06 05:05:31;;;;;;;4.37;2.10;;;12.30;99.90;;;;;;4975815;28;20415;-90
2022/08/06 05:07:58;;;;;;;2.65;2.05;;;12.40;99.90;;;;;;4971883;28;20394;-90
2022/08/06 05:10:30;;;;;;;4.85;2.10;;;12.50;99.90;;;;;;4973923;28;20401;-85
2022/08/06 05:12:56;;;;;;;3.80;1.80;;;12.70;99.90;;;;;;4977077;28;20412;-89
2022/08/06 05:15:49;;;;;;;2.60;1.70;;;12.90;99.90;;;;;;4976424;28;20886;-91
2022/08/06 05:18:23;;;;;;;2.58;1.52;;;13.20;99.90;;;;;;4978223;28;20392;-92
2022/08/06 05:20:52;;;;;;;3.40;1.43;;;13.50;99.90;;;;;;4977260;28;20960;-91
2022/08/06 05:23:22;;;;;;;3.67;1.92;;;13.70;99.90;;;;;;4971829;28;20389;-90
2022/08/06 05:25:49;;;;;;;3.40;1.70;;;13.80;99.90;;;;;;4989296;28;20374;-91
2022/08/06 05:28:15;;;;;;;2.35;1.60;;;13.90;99.90;;;;;;4974120;28;20399;-86
2022/08/06 05:30:46;;;;;;;3.27;1.90;;;14.00;99.90;;;;;;4992849;28;20392;-91
2022/08/06 05:33:26;;;;;;;2.83;1.40;;;14.20;99.90;;;;;;4987887;28;20381;-92
2022/08/06 05:35:51;;;;;;;2.45;1.70;;;14.20;99.90;;;;;;4971782;28;20476;-86
2022/08/06 05:38:17;;;;;;;2.43;1.57;;;14.30;99.90;;;;;;4971451;28;20687;-88
2022/08/06 05:40:44;;;;;;;2.42;1.70;;;14.50;99.90;;;;;;4973502;28;20813;-87
2022/08/06 05:43:10;;;;;;;3.15;1.63;;;14.40;99.90;;;;;;4974320;28;20484;-85
2022/08/06 05:45:38;;;;;;;2.60;1.80;;;14.40;99.90;;;;;;4988998;28;20464;-88
2022/08/06 05:48:05;;;;;;;2.17;1.50;;;14.40;99.90;;;;;;4973164;28;20424;-86
2022/08/06 05:50:37;;;;;;;2.00;1.40;;;14.40;99.90;;;;;;4974482;28;20376;-90
2022/08/06 05:53:16;;;;;;;3.07;1.73;;;14.50;99.90;;;;;;4966990;28;20383;-87
2022/08/06 05:55:56;;;;;;;2.35;1.70;;;14.50;99.90;;;;;;4982893;28;20722;-86
2022/08/06 05:58:30;;;;;;;3.05;1.50;;;14.60;99.90;;;;;;4978219;28;20391;-88
2022/08/06 06:01:03;;;;;;;3.47;1.40;;;14.70;99.90;;;;;;4973031;28;20397;-89
2022/08/06 06:03:30;;;;;;;3.30;1.50;;;14.80;99.90;;;;;;4973685;28;20415;-87
2022/08/06 06:05:58;;;;;;;3.50;1.60;;;14.90;99.90;;;;;;4989639;28;20420;-87
2022/08/06 06:08:24;;;;;;;3.22;1.50;;;14.90;99.90;;;;;;4974069;28;20393;-86
2022/08/06 06:10:51;;;;;;;3.42;1.50;;;15.00;99.90;;;;;;4972711;28;20890;-88
2022/08/06 06:13:17;;;;;;;4.10;1.67;;;15.10;99.90;;;;;;4975160;28;20400;-88
2022/08/06 06:15:48;;;;;;;2.67;1.20;;;15.10;99.90;;;;;;4972219;28;20497;-89
2022/08/06 06:18:26;;;;;;;2.75;1.40;;;15.30;99.90;;;;;;4972215;28;20392;-88
2022/08/06 06:21:10;;;;;;;3.00;1.38;;;15.40;99.90;;;;;;4986717;28;20988;-88
2022/08/06 06:23:59;;;;;;;2.80;1.27;;;15.50;99.90;;;;;;4964501;28;20445;-89
2022/08/06 06:26:39;;;;;;;1.90;1.20;;;15.70;99.90;;;;;;4972554;28;20481;-90
2022/08/06 06:29:23;;;;;;;3.75;1.33;;;15.90;99.90;;;;;;4987113;28;20379;-88
2022/08/06 06:32:06;;;;;;;1.95;1.00;;;15.90;99.90;;;;;;4984796;28;20389;-85
2022/08/06 06:34:42;;;;;;;2.13;1.30;;;15.90;99.90;;;;;;4990820;28;20416;-89
2022/08/06 06:37:16;;;;;;;3.40;1.20;;;16.00;99.90;;;;;;4971626;28;20475;-89
2022/08/06 06:40:08;;;;;;;4.25;1.20;;;16.20;99.90;;;;;;4972561;28;20405;-90
2022/08/06 06:42:50;;;;;;;2.47;1.10;;;16.50;99.90;;;;;;4980984;28;20573;-91
2022/08/06 06:45:29;;;;;;;3.00;0.80;;;17.00;99.90;;;;;;4971090;28;20767;-85
2022/08/06 06:48:12;;;;;;;3.30;1.15;;;17.70;99.90;;;;;;4974544;28;20412;-89
2022/08/06 06:50:49;;;;;;;1.40;0.82;;;18.10;99.90;;;;;;4972801;28;20411;-90
2022/08/06 06:53:17;;;;;;;5.65;1.08;;;18.30;99.90;;;;;;4977570;28;20393;-86
2022/08/06 06:55:51;;;;;;;2.43;0.80;;;18.60;99.90;;;;;;4973166;28;20475;-90
2022/08/06 06:58:25;;;;;;;3.33;1.08;;;18.90;99.90;;;;;;4971276;28;20405;-87
2022/08/06 07:00:53;;;;;;;2.47;0.80;;;19.10;99.90;;;;;;4974021;28;20748;-85
2022/08/06 07:03:21;;;;;;;2.53;0.85;;;19.00;99.90;;;;;;4977194;28;20734;-86
2022/08/06 07:05:49;;;;;;;2.13;1.00;;;18.90;99.90;;;;;;4977069;28;20431;-84
2022/08/06 07:08:20;;;;;;;1.88;0.93;;;19.00;99.90;;;;;;4994086;28;20806;-86
2022/08/06 07:10:46;;;;;;;2.38;0.90;;;19.10;99.90;;;;;;4993097;28;20392;-86
2022/08/06 07:13:14;;;;;;;2.65;0.90;;;19.20;99.90;;;;;;4977495;28;20399;-84
2022/08/06 07:15:41;;;;;;;3.42;0.90;;;18.80;99.90;;;;;;4991712;28;20397;-87
2022/08/06 07:18:08;;;;;;;4.07;1.20;;;18.70;99.90;;;;;;4998894;28;20381;-85
2022/08/06 07:20:34;;;;;;;2.35;1.00;;;18.60;99.90;;;;;;4980684;28;20425;-90
2022/08/06 07:23:03;;;;;;;1.65;0.88;;;18.70;99.90;;;;;;4981106;28;20445;-84
2022/08/06 07:25:29;;;;;;;1.50;0.90;;;19.10;99.90;;;;;;4966361;28;20404;-88
2022/08/06 07:27:55;;;;;;;2.28;1.02;;;19.10;99.90;;;;;;5006506;28;20396;-84
2022/08/06 07:30:22;;;;;;;3.40;0.90;;;19.20;99.90;;;;;;4974005;28;20394;-88
2022/08/06 07:32:52;;;;;;;3.40;0.90;;;19.10;99.90;;;;;;4992512;28;20389;-89
2022/08/06 07:35:23;;;;;;;1.88;0.90;;;19.00;99.90;;;;;;4971715;28;20392;-88
2022/08/06 07:37:57;;;;;;;1.92;0.80;;;18.90;99.90;;;;;;4972174;28;20436;-89
2022/08/06 07:40:51;;;;;;;1.45;0.80;;;19.10;99.90;;;;;;4985142;28;20912;-89
2022/08/06 07:43:23;;;;;;;1.37;0.80;;;19.10;99.90;;;;;;4979930;28;20389;-86
2022/08/06 07:45:50;;;;;;;3.40;0.90;;;19.40;99.90;;;;;;4968537;28;20407;-86
2022/08/06 07:48:21;;;;;;;4.55;1.13;;;19.40;99.90;;;;;;4986816;28;20457;-88
2022/08/06 07:50:51;;;;;;;3.60;0.90;;;19.30;99.90;;;;;;4990168;28;20389;-84
2022/08/06 07:53:19;;;;;;;3.58;0.90;;;19.30;99.90;;;;;;4975311;28;20384;-84
2022/08/06 07:55:47;;;;;;;1.50;0.70;;;19.10;99.90;;;;;;4975785;28;20385;-87
2022/08/06 07:58:14;;;;;;;1.75;0.88;;;18.90;99.90;;;;;;4974815;28;20423;-88
2022/08/06 08:00:42;;;;;;;2.53;0.85;;;19.20;99.90;;;;;;4976389;28;20419;-91
2022/08/06 08:08:43;;;;;;;2.15;1.20;;;19.50;99.90;;;;;;4990776;28;20400;-89
2022/08/06 08:11:16;;;;;;;2.65;0.77;;;19.50;99.90;;;;;;4992609;28;20879;-88
2022/08/06 08:13:45;;;;;;;2.03;0.70;;;19.80;99.90;;;;;;4975913;28;20392;-89
2022/08/06 08:16:14;;;;;;;5.50;1.00;;;20.00;99.90;;;;;;4976626;28;20875;-88
2022/08/06 08:18:40;;;;;;;2.42;0.80;;;20.20;99.90;;;;;;4990961;28;20369;-87
